Time;durP1;ratioP1;P1;durP2;ratioP2;P2;SDS_P1;SDS_P2;PMS_P1;PMS_P2;Temp;Humidity;BMP_temperature;BMP_pressure;BME280_temperature;BME280_humidity;BME280_pressure;Samples;Min_cycle;Max_cycle;Signal;HPM_P1;HPM_P2
2022/06/30 00:00:34;;;;;;;6.47;4.40;;;22.00;99.90;;;;;;6922111;28;20488;-78
2022/06/30 00:03:56;;;;;;;6.93;4.43;;;22.00;99.90;;;;;;6905602;28;20592;-79
2022/06/30 00:07:18;;;;;;;7.43;4.40;;;22.10;99.90;;;;;;6938749;28;20478;-78
2022/06/30 00:10:40;;;;;;;8.93;4.70;;;22.00;99.90;;;;;;6923775;28;20554;-77
2022/06/30 00:14:03;;;;;;;7.45;4.60;;;22.10;99.90;;;;;;6913476;28;20875;-79
2022/06/30 00:17:26;;;;;;;7.18;4.43;;;22.10;99.90;;;;;;6924400;28;20462;-79
2022/06/30 00:20:48;;;;;;;6.93;4.60;;;22.10;99.90;;;;;;6914120;28;20862;-75
2022/06/30 00:24:10;;;;;;;8.82;4.90;;;22.00;99.90;;;;;;6905689;28;20546;-79
2022/06/30 00:27:32;;;;;;;6.97;4.70;;;21.90;99.90;;;;;;6936740;28;20470;-77
2022/06/30 00:30:55;;;;;;;6.83;4.73;;;21.80;99.90;;;;;;6939349;28;20442;-77
2022/06/30 00:34:18;;;;;;;7.63;4.60;;;21.70;99.90;;;;;;6924231;28;20448;-78
2022/06/30 00:37:40;;;;;;;8.80;4.55;;;21.70;99.90;;;;;;6913142;28;20460;-77
2022/06/30 00:41:02;;;;;;;7.47;4.57;;;21.60;99.90;;;;;;6940889;28;20442;-79
2022/06/30 00:44:24;;;;;;;8.30;4.67;;;21.60;99.90;;;;;;6929445;28;20440;-76
2022/06/30 00:47:46;;;;;;;8.02;4.65;;;21.60;99.90;;;;;;6921163;28;20468;-77
2022/06/30 00:51:10;;;;;;;6.20;4.55;;;21.60;99.90;;;;;;6921099;28;20495;-79
2022/06/30 00:54:35;;;;;;;7.57;4.53;;;21.60;99.90;;;;;;6921727;28;20854;-77
2022/06/30 00:58:00;;;;;;;7.57;4.30;;;21.50;99.90;;;;;;6921985;28;20431;-78
2022/06/30 01:01:25;;;;;;;6.57;4.07;;;21.50;99.90;;;;;;6919764;28;20447;-78
2022/06/30 01:04:48;;;;;;;8.07;4.13;;;21.40;99.90;;;;;;6920372;28;20431;-77
2022/06/30 01:08:12;;;;;;;6.90;4.53;;;21.40;99.90;;;;;;6920308;28;20447;-78
2022/06/30 01:15:15;;;;;;;6.15;4.38;;;21.10;99.90;;;;;;6921033;28;20437;-79
2022/06/30 01:18:37;;;;;;;9.23;4.80;;;21.00;99.90;;;;;;6920217;28;20432;-79
2022/06/30 01:22:01;;;;;;;7.97;4.40;;;20.90;99.90;;;;;;6921369;28;20945;-77
2022/06/30 01:25:25;;;;;;;5.90;4.33;;;20.90;99.90;;;;;;6919432;28;20441;-79
2022/06/30 01:28:47;;;;;;;7.40;4.25;;;21.00;99.90;;;;;;6921429;28;20555;-77
2022/06/30 01:32:09;;;;;;;7.40;4.60;;;21.00;99.90;;;;;;6921479;28;20428;-78
2022/06/30 01:35:32;;;;;;;7.03;4.60;;;21.10;99.90;;;;;;6919755;28;20443;-79
2022/06/30 01:38:55;;;;;;;6.55;4.65;;;20.90;99.90;;;;;;6919253;28;20438;-78
2022/06/30 01:42:17;;;;;;;7.17;4.67;;;20.90;99.90;;;;;;6920040;28;20521;-79
2022/06/30 01:45:40;;;;;;;6.28;4.30;;;20.90;99.90;;;;;;6920788;28;20451;-79
2022/06/30 01:49:02;;;;;;;6.70;4.43;;;20.90;99.90;;;;;;6920250;28;20459;-75
2022/06/30 01:52:24;;;;;;;8.45;4.60;;;21.00;99.90;;;;;;6918860;28;20559;-78
2022/06/30 01:55:47;;;;;;;6.05;4.30;;;20.90;99.90;;;;;;6915299;28;20436;-76
2022/06/30 01:59:09;;;;;;;8.53;4.63;;;20.90;99.90;;;;;;6915402;28;20538;-77
2022/06/30 02:02:31;;;;;;;7.43;4.60;;;20.90;99.90;;;;;;6915590;28;20476;-79
2022/06/30 02:05:53;;;;;;;7.10;4.60;;;20.90;99.90;;;;;;6915565;28;20479;-79
2022/06/30 02:09:16;;;;;;;6.90;4.40;;;20.90;99.90;;;;;;6914266;28;20472;-78
2022/06/30 02:12:48;;;;;;;8.18;4.70;;;20.70;99.90;;;;;;6916583;28;20464;-79
2022/06/30 02:16:10;;;;;;;8.30;4.75;;;20.60;99.90;;;;;;6915842;28;20445;-78
2022/06/30 02:19:32;;;;;;;8.57;4.72;;;20.50;99.90;;;;;;6916114;28;20504;-78
2022/06/30 02:22:57;;;;;;;6.97;4.50;;;20.40;99.90;;;;;;6915700;28;20599;-79
2022/06/30 02:26:19;;;;;;;7.18;4.35;;;20.40;99.90;;;;;;6910586;28;20540;-78
2022/06/30 02:29:42;;;;;;;6.70;4.32;;;20.50;99.90;;;;;;6915847;28;20919;-78
2022/06/30 02:33:04;;;;;;;6.40;4.43;;;20.40;99.90;;;;;;6916194;28;20469;-79
2022/06/30 02:36:26;;;;;;;7.43;4.40;;;20.30;99.90;;;;;;6913594;28;20810;-79
2022/06/30 02:39:48;;;;;;;6.55;4.75;;;20.20;99.90;;;;;;6914659;28;20491;-79
2022/06/30 02:43:10;;;;;;;7.55;4.57;;;20.30;99.90;;;;;;6915289;28;20472;-78
2022/06/30 02:46:34;;;;;;;7.28;4.65;;;20.30;99.90;;;;;;6913698;28;21104;-79
2022/06/30 02:49:56;;;;;;;6.50;4.60;;;20.30;99.90;;;;;;6915840;28;20527;-80
2022/06/30 02:53:18;;;;;;;8.07;5.00;;;20.30;99.90;;;;;;6915350;28;20433;-79
2022/06/30 02:56:40;;;;;;;7.65;4.85;;;20.40;99.90;;;;;;6912284;28;20432;-78
2022/06/30 03:00:03;;;;;;;9.02;5.65;;;20.30;99.90;;;;;;6914531;28;20475;-78
2022/06/30 03:03:26;;;;;;;8.13;5.00;;;20.20;99.90;;;;;;6915186;28;20456;-77
2022/06/30 03:06:48;;;;;;;6.68;4.80;;;20.20;99.90;;;;;;6913566;28;20869;-79
2022/06/30 03:10:11;;;;;;;7.17;4.80;;;20.20;99.90;;;;;;6913810;28;20436;-79
2022/06/30 03:13:33;;;;;;;7.25;5.10;;;20.30;99.90;;;;;;6905180;28;20434;-79
2022/06/30 03:16:55;;;;;;;7.45;5.10;;;20.30;99.90;;;;;;6892269;28;20473;-76
2022/06/30 03:20:18;;;;;;;7.88;4.70;;;20.20;99.90;;;;;;6914866;28;20472;-81
2022/06/30 03:23:41;;;;;;;6.80;5.20;;;20.20;99.90;;;;;;6914693;28;20423;-77
2022/06/30 03:27:03;;;;;;;6.63;5.18;;;20.30;99.90;;;;;;6912512;28;20433;-77
2022/06/30 03:30:26;;;;;;;7.55;5.03;;;20.30;99.90;;;;;;6913909;28;20441;-76
2022/06/30 03:33:48;;;;;;;9.02;5.20;;;20.20;99.90;;;;;;6914512;28;20436;-79
2022/06/30 03:37:12;;;;;;;8.48;5.10;;;20.20;99.90;;;;;;6911562;28;20951;-78
2022/06/30 03:40:34;;;;;;;7.35;5.50;;;20.20;99.90;;;;;;6912607;28;20505;-79
2022/06/30 03:43:56;;;;;;;8.13;5.15;;;20.20;99.90;;;;;;6913629;28;20444;-78
2022/06/30 03:47:18;;;;;;;7.63;4.90;;;20.20;99.90;;;;;;6910993;28;20479;-79
2022/06/30 03:50:40;;;;;;;7.33;4.60;;;20.20;99.90;;;;;;6905211;28;20447;-77
2022/06/30 03:54:04;;;;;;;7.80;5.40;;;20.20;99.90;;;;;;6913128;28;20871;-79
2022/06/30 03:57:26;;;;;;;7.50;5.28;;;20.20;99.90;;;;;;6913849;28;20464;-79
2022/06/30 04:00:48;;;;;;;8.13;5.10;;;20.10;99.90;;;;;;6913927;28;20930;-79
2022/06/30 04:04:10;;;;;;;7.60;5.13;;;20.00;99.90;;;;;;6912866;28;20862;-80
2022/06/30 04:07:32;;;;;;;8.05;4.80;;;19.90;99.90;;;;;;6913654;28;20429;-80
2022/06/30 04:10:55;;;;;;;7.25;5.20;;;19.90;99.90;;;;;;6912894;28;20480;-80
2022/06/30 04:14:17;;;;;;;7.32;4.40;;;20.00;99.90;;;;;;6912635;28;20436;-78
2022/06/30 04:17:39;;;;;;;6.97;4.13;;;20.10;99.90;;;;;;6913036;28;20464;-80
2022/06/30 04:21:01;;;;;;;8.25;4.32;;;20.20;99.90;;;;;;6912842;28;20476;-78
2022/06/30 04:24:24;;;;;;;8.50;4.50;;;20.10;99.90;;;;;;6912594;28;20941;-80
2022/06/30 04:27:50;;;;;;;8.50;4.60;;;20.00;99.90;;;;;;6913387;28;20530;-79
2022/06/30 04:34:51;;;;;;;7.33;4.87;;;19.90;99.90;;;;;;6912184;28;20429;-80
2022/06/30 04:38:13;;;;;;;7.82;5.20;;;19.80;99.90;;;;;;6913339;28;20467;-80
2022/06/30 04:41:36;;;;;;;8.32;5.30;;;19.90;99.90;;;;;;6912564;28;20945;-79
2022/06/30 04:45:00;;;;;;;10.13;5.55;;;19.90;99.90;;;;;;6909993;28;20916;-78
2022/06/30 04:48:22;;;;;;;7.97;5.03;;;20.00;99.90;;;;;;6886340;28;20501;-80
2022/06/30 04:51:45;;;;;;;6.75;4.72;;;20.10;99.90;;;;;;6885308;28;20422;-77
2022/06/30 04:55:08;;;;;;;8.93;4.90;;;20.10;99.90;;;;;;6887130;28;20572;-77
2022/06/30 04:58:30;;;;;;;8.43;5.00;;;20.20;99.90;;;;;;6887340;28;20438;-77
2022/06/30 05:01:54;;;;;;;9.13;5.03;;;20.30;99.90;;;;;;6884964;28;20474;-77
2022/06/30 05:05:16;;;;;;;7.87;4.83;;;20.40;99.90;;;;;;6885705;28;20434;-77
2022/06/30 05:08:38;;;;;;;8.73;5.20;;;20.40;99.90;;;;;;6885641;28;20434;-79
2022/06/30 05:12:00;;;;;;;8.15;5.38;;;20.30;99.90;;;;;;6884132;28;20441;-77
2022/06/30 05:15:22;;;;;;;8.80;5.43;;;20.20;99.90;;;;;;6884688;28;20936;-78
2022/06/30 05:18:45;;;;;;;9.38;5.68;;;20.30;99.90;;;;;;6885280;28;20441;-79
2022/06/30 05:22:07;;;;;;;7.75;5.75;;;20.40;99.90;;;;;;6885243;28;20484;-79
2022/06/30 05:29:09;;;;;;;9.18;6.00;;;20.30;99.90;;;;;;6888216;28;20466;-78
2022/06/30 05:32:31;;;;;;;9.02;5.72;;;20.30;99.90;;;;;;6890742;28;20496;-78
2022/06/30 05:35:55;;;;;;;8.90;6.10;;;20.40;99.90;;;;;;6890573;28;20955;-79
2022/06/30 05:39:17;;;;;;;9.93;5.90;;;20.40;99.90;;;;;;6890290;28;20477;-80
2022/06/30 05:42:39;;;;;;;10.00;6.10;;;20.50;99.90;;;;;;6889129;28;20505;-80
2022/06/30 05:46:01;;;;;;;10.38;6.00;;;20.60;99.90;;;;;;6887022;28;21194;-79
2022/06/30 05:49:25;;;;;;;9.93;5.65;;;20.60;99.90;;;;;;6886635;28;20484;-78
2022/06/30 05:52:50;;;;;;;7.68;5.50;;;20.60;99.90;;;;;;6886526;28;20449;-79
2022/06/30 05:56:14;;;;;;;7.53;5.25;;;20.70;99.90;;;;;;6904142;28;20579;-77
2022/06/30 05:59:36;;;;;;;8.75;5.30;;;20.80;99.90;;;;;;6929215;28;20444;-80
2022/06/30 06:02:58;;;;;;;8.20;5.32;;;20.90;99.90;;;;;;6909294;28;20532;-79
2022/06/30 06:06:20;;;;;;;8.00;5.07;;;21.00;99.90;;;;;;6913131;28;20437;-80
2022/06/30 06:09:44;;;;;;;8.00;5.32;;;21.10;99.90;;;;;;6912544;28;20468;-79
2022/06/30 06:13:06;;;;;;;7.47;5.20;;;21.10;99.90;;;;;;6912884;28;20479;-79
2022/06/30 06:16:28;;;;;;;7.57;5.32;;;21.10;99.90;;;;;;6911507;28;20460;-79
2022/06/30 06:19:50;;;;;;;7.43;4.93;;;21.10;99.90;;;;;;6912595;28;20432;-80
2022/06/30 06:23:12;;;;;;;8.02;4.80;;;21.20;99.90;;;;;;6909936;28;20526;-80
2022/06/30 06:26:36;;;;;;;8.75;5.13;;;21.30;99.90;;;;;;6913140;28;20926;-79
2022/06/30 06:29:58;;;;;;;7.35;5.10;;;21.30;99.90;;;;;;6912420;28;20914;-78
2022/06/30 06:33:20;;;;;;;8.30;5.13;;;21.40;99.90;;;;;;6912277;28;20433;-79
2022/06/30 06:36:42;;;;;;;8.03;4.97;;;21.50;99.90;;;;;;6913303;28;20471;-79
2022/06/30 06:40:06;;;;;;;8.57;5.43;;;21.50;99.90;;;;;;6909298;28;20475;-79
2022/06/30 06:43:29;;;;;;;10.27;5.50;;;21.60;99.90;;;;;;6909656;28;20475;-80
2022/06/30 06:46:51;;;;;;;9.85;5.45;;;21.60;99.90;;;;;;6909669;28;20452;-79
2022/06/30 06:50:13;;;;;;;8.70;5.30;;;21.70;99.90;;;;;;6911582;28;20440;-80
2022/06/30 06:53:36;;;;;;;8.50;5.20;;;21.70;99.90;;;;;;6909816;28;20479;-78
2022/06/30 06:56:58;;;;;;;8.73;5.00;;;21.90;99.90;;;;;;6921666;28;20430;-80
2022/06/30 07:00:22;;;;;;;7.35;5.00;;;22.00;99.90;;;;;;6930446;28;20512;-79
2022/06/30 07:03:44;;;;;;;7.97;5.18;;;22.10;99.90;;;;;;6885467;28;20468;-80
2022/06/30 07:07:06;;;;;;;8.18;5.10;;;22.10;99.90;;;;;;6885599;28;20477;-79
2022/06/30 07:10:29;;;;;;;9.05;5.38;;;22.10;99.90;;;;;;6884213;28;20434;-81
2022/06/30 07:13:51;;;;;;;7.57;5.55;;;22.10;99.90;;;;;;6903570;28;20436;-79
2022/06/30 07:17:15;;;;;;;8.13;4.95;;;22.30;99.90;;;;;;6909783;28;20910;-81
2022/06/30 07:20:37;;;;;;;11.67;5.47;;;22.40;99.90;;;;;;6907663;28;21105;-78
2022/06/30 07:23:59;;;;;;;9.77;5.50;;;22.40;99.90;;;;;;6910778;28;20448;-78
2022/06/30 07:27:21;;;;;;;9.02;5.38;;;22.40;99.90;;;;;;6906894;28;20480;-80
2022/06/30 07:30:43;;;;;;;9.37;5.40;;;22.50;99.90;;;;;;6910327;28;20502;-79
2022/06/30 07:34:06;;;;;;;8.02;5.18;;;22.70;99.90;;;;;;6907139;28;20496;-79
2022/06/30 07:37:29;;;;;;;8.73;5.50;;;22.80;99.90;;;;;;6907337;28;20475;-78
2022/06/30 07:40:51;;;;;;;10.45;5.80;;;22.90;99.90;;;;;;6910104;28;20463;-80
2022/06/30 07:44:13;;;;;;;9.05;5.03;;;22.90;99.90;;;;;;6891753;28;20479;-80
2022/06/30 07:47:35;;;;;;;9.10;5.47;;;23.00;99.90;;;;;;6908535;28;20474;-78
2022/06/30 07:50:59;;;;;;;8.68;5.47;;;23.10;99.90;;;;;;6908620;28;20954;-80
2022/06/30 07:54:21;;;;;;;9.13;5.55;;;23.20;99.90;;;;;;6906218;28;20472;-78
2022/06/30 07:57:46;;;;;;;11.38;5.60;;;23.20;99.90;;;;;;6906216;28;20922;-78
2022/06/30 08:01:09;;;;;;;8.25;5.60;;;23.30;99.90;;;;;;6914598;28;20803;-79
2022/06/30 08:04:31;;;;;;;9.43;5.57;;;23.40;99.90;;;;;;6907361;28;20539;-80
2022/06/30 08:07:54;;;;;;;7.40;5.25;;;23.50;99.90;;;;;;6906284;28;20475;-79
2022/06/30 08:11:17;;;;;;;10.60;5.90;;;23.50;99.90;;;;;;6908298;28;21256;-78
2022/06/30 08:14:39;;;;;;;8.57;5.50;;;23.60;99.90;;;;;;6905492;28;20476;-80
2022/06/30 08:18:03;;;;;;;12.50;6.30;;;23.60;99.90;;;;;;6915683;28;20436;-79
2022/06/30 08:21:26;;;;;;;10.20;6.07;;;23.70;99.90;;;;;;6908317;28;20444;-78
2022/06/30 08:24:49;;;;;;;9.55;5.60;;;23.70;99.90;;;;;;6895860;28;20477;-78
2022/06/30 08:28:11;;;;;;;8.45;5.50;;;23.80;99.90;;;;;;6917422;28;20478;-78
2022/06/30 08:31:34;;;;;;;10.90;5.10;;;23.90;99.90;;;;;;6908588;28;20451;-78
2022/06/30 08:34:57;;;;;;;10.77;5.43;;;24.00;99.90;;;;;;6904158;28;20839;-77
2022/06/30 08:38:21;;;;;;;11.32;5.35;;;24.00;99.90;;;;;;6906512;28;20452;-78
2022/06/30 08:45:26;;;;;;;9.13;5.53;;;24.20;99.90;;;;;;6905934;28;20875;-78
2022/06/30 08:48:49;;;;;;;7.93;4.82;;;24.30;99.90;;;;;;6888925;28;20474;-79
2022/06/30 08:52:12;;;;;;;9.05;5.07;;;24.40;99.70;;;;;;6898811;28;21554;-78
2022/06/30 08:55:35;;;;;;;7.97;4.90;;;24.40;99.60;;;;;;6908065;28;20492;-78
2022/06/30 08:59:00;;;;;;;8.93;4.80;;;24.40;99.60;;;;;;6904703;28;20889;-79
2022/06/30 09:02:22;;;;;;;10.20;5.37;;;24.60;99.90;;;;;;6908226;28;20500;-77
2022/06/30 09:05:46;;;;;;;8.18;4.40;;;24.60;99.10;;;;;;6911231;28;20436;-79
2022/06/30 09:09:08;;;;;;;9.25;4.22;;;24.70;98.10;;;;;;6911270;28;20438;-78
2022/06/30 09:12:32;;;;;;;8.35;4.50;;;24.80;98.10;;;;;;6913403;28;20488;-77
2022/06/30 09:15:59;;;;;;;9.23;4.78;;;24.90;98.10;;;;;;6913628;28;20463;-80
2022/06/30 09:19:22;;;;;;;8.90;4.38;;;25.00;97.50;;;;;;6909771;28;20514;-78
2022/06/30 09:22:44;;;;;;;9.05;4.50;;;25.00;97.40;;;;;;6920931;28;20444;-78
2022/06/30 09:26:07;;;;;;;6.63;4.47;;;25.10;97.10;;;;;;6912990;28;20468;-79
2022/06/30 09:29:31;;;;;;;9.02;4.40;;;25.10;97.20;;;;;;6912411;28;20436;-77
2022/06/30 09:32:57;;;;;;;8.50;4.30;;;25.10;96.50;;;;;;6908759;28;20952;-77
2022/06/30 09:36:25;;;;;;;7.15;4.40;;;25.20;96.50;;;;;;6913802;28;20929;-78
2022/06/30 09:39:48;;;;;;;7.60;4.20;;;25.30;96.90;;;;;;6910887;28;20437;-80
2022/06/30 09:43:10;;;;;;;7.15;4.10;;;25.30;96.70;;;;;;6896646;28;20895;-78
2022/06/30 09:46:36;;;;;;;7.32;4.20;;;25.30;95.80;;;;;;6911679;28;20437;-78
2022/06/30 09:50:04;;;;;;;8.80;3.90;;;25.30;95.80;;;;;;6910993;28;20942;-78
2022/06/30 09:53:27;;;;;;;9.10;3.87;;;25.50;95.60;;;;;;6912042;28;20583;-80
2022/06/30 09:57:02;;;;;;;7.85;3.75;;;25.40;94.80;;;;;;6893323;28;20441;-81
2022/06/30 10:00:24;;;;;;;6.70;3.60;;;25.40;94.80;;;;;;6908527;28;20436;-77
2022/06/30 10:03:48;;;;;;;9.02;3.75;;;25.60;94.30;;;;;;6908136;28;20515;-77
2022/06/30 10:07:12;;;;;;;8.10;3.70;;;25.70;94.40;;;;;;6896952;28;20445;-78
2022/06/30 10:10:35;;;;;;;6.83;3.60;;;25.80;94.40;;;;;;6912196;28;20440;-78
2022/06/30 10:13:57;;;;;;;7.30;3.60;;;25.90;94.20;;;;;;6911136;28;20922;-80
2022/06/30 10:17:23;;;;;;;8.18;3.30;;;25.90;93.70;;;;;;6911179;28;20491;-78
2022/06/30 10:20:47;;;;;;;6.72;3.55;;;26.10;93.60;;;;;;6910674;28;20436;-78
2022/06/30 10:24:11;;;;;;;7.43;3.70;;;26.20;93.10;;;;;;6900900;28;20478;-79
2022/06/30 10:27:34;;;;;;;8.00;3.72;;;26.20;92.30;;;;;;6920579;28;20502;-78
2022/06/30 10:31:04;;;;;;;7.95;3.63;;;26.30;92.10;;;;;;6907913;28;20577;-78
2022/06/30 10:34:37;;;;;;;5.35;3.33;;;26.20;91.50;;;;;;6907607;28;20867;-78
2022/06/30 10:38:07;;;;;;;8.98;3.50;;;26.20;91.90;;;;;;6911193;28;20510;-81
2022/06/30 10:41:30;;;;;;;7.53;3.30;;;26.30;91.60;;;;;;6911269;28;20487;-77
2022/06/30 10:44:53;;;;;;;7.13;3.42;;;26.40;90.80;;;;;;6911376;28;20444;-80
2022/06/30 10:48:15;;;;;;;7.10;3.40;;;26.30;90.90;;;;;;6910534;28;20440;-79
2022/06/30 10:51:38;;;;;;;7.73;3.27;;;26.30;91.10;;;;;;6911094;28;20567;-78
2022/06/30 10:55:06;;;;;;;6.97;3.58;;;26.40;91.50;;;;;;6909604;28;20502;-79
2022/06/30 10:58:30;;;;;;;7.68;3.55;;;26.40;90.00;;;;;;6894743;28;20443;-79
2022/06/30 11:02:26;;;;;;;7.53;3.40;;;26.60;90.60;;;;;;6909683;28;20487;-79
2022/06/30 11:05:51;;;;;;;7.07;3.20;;;26.70;90.80;;;;;;6902755;28;20437;-78
2022/06/30 11:09:13;;;;;;;8.50;3.42;;;26.80;90.00;;;;;;6910616;28;20471;-76
2022/06/30 11:13:00;;;;;;;6.45;3.70;;;26.80;90.00;;;;;;6911863;28;20460;-76
2022/06/30 11:16:25;;;;;;;11.55;5.85;;;26.80;88.30;;;;;;6910139;28;20468;-77
2022/06/30 11:19:48;;;;;;;11.93;5.68;;;27.00;90.20;;;;;;6909276;28;20517;-78
2022/06/30 11:23:11;;;;;;;9.23;4.60;;;27.00;88.40;;;;;;6885167;28;20489;-77
2022/06/30 11:30:20;;;;;;;6.55;3.10;;;27.10;85.50;;;;;;6909132;28;20433;-78
2022/06/30 11:33:54;;;;;;;7.07;3.13;;;27.20;88.40;;;;;;6923645;28;20444;-79
2022/06/30 11:37:21;;;;;;;6.47;3.13;;;27.40;86.80;;;;;;6909818;28;20886;-79
2022/06/30 11:40:45;;;;;;;5.32;2.85;;;27.50;84.10;;;;;;6908097;28;20447;-77
2022/06/30 11:44:07;;;;;;;6.15;2.92;;;27.50;85.80;;;;;;6909478;28;20455;-78
2022/06/30 11:47:29;;;;;;;5.50;3.08;;;27.60;83.10;;;;;;6906867;28;20444;-78
2022/06/30 11:50:54;;;;;;;5.28;2.70;;;27.70;80.20;;;;;;6895566;28;20483;-79
2022/06/30 11:54:18;;;;;;;6.50;2.90;;;27.80;83.50;;;;;;6909628;28;20447;-78
2022/06/30 11:57:44;;;;;;;7.40;3.20;;;27.80;79.20;;;;;;6906716;28;20849;-78
2022/06/30 12:01:18;;;;;;;6.47;3.30;;;27.80;83.60;;;;;;6909435;28;20448;-78
2022/06/30 12:04:42;;;;;;;5.60;3.10;;;27.90;79.00;;;;;;6904555;28;20458;-78
2022/06/30 12:08:12;;;;;;;6.80;2.90;;;28.10;82.00;;;;;;6909271;28;20444;-78
2022/06/30 12:11:35;;;;;;;6.32;3.15;;;28.20;79.90;;;;;;6909004;28;20986;-78
2022/06/30 12:15:00;;;;;;;7.70;3.25;;;28.20;80.30;;;;;;6905046;28;20481;-77
2022/06/30 12:18:24;;;;;;;9.07;3.05;;;28.20;79.00;;;;;;6908056;28;20432;-79
2022/06/30 12:21:47;;;;;;;5.57;2.80;;;28.30;77.40;;;;;;6909419;28;20489;-78
2022/06/30 12:25:12;;;;;;;6.30;3.05;;;28.50;76.00;;;;;;6907146;28;20467;-77
2022/06/30 12:28:51;;;;;;;6.45;2.90;;;28.50;75.00;;;;;;6909224;28;20960;-78
2022/06/30 12:32:13;;;;;;;5.83;3.00;;;28.70;76.20;;;;;;6905977;28;20908;-78
2022/06/30 12:35:38;;;;;;;7.73;3.00;;;28.90;73.60;;;;;;6917802;28;20487;-76
2022/06/30 12:39:12;;;;;;;6.23;2.90;;;29.10;73.50;;;;;;6908643;28;20444;-78
2022/06/30 12:42:45;;;;;;;5.32;2.92;;;29.20;74.30;;;;;;6908719;28;20448;-76
2022/06/30 12:46:07;;;;;;;6.25;2.88;;;29.40;74.70;;;;;;6907057;28;20449;-76
2022/06/30 12:49:30;;;;;;;5.33;2.93;;;29.50;72.10;;;;;;6907387;28;20518;-77
2022/06/30 12:52:52;;;;;;;6.07;2.90;;;29.60;70.10;;;;;;6909150;28;20510;-78
2022/06/30 12:56:20;;;;;;;6.13;2.97;;;29.70;68.70;;;;;;6903649;28;20445;-79
2022/06/30 12:59:50;;;;;;;4.80;3.08;;;29.80;67.80;;;;;;6908276;28;20455;-77
2022/06/30 13:03:13;;;;;;;6.63;3.23;;;30.00;67.00;;;;;;6907182;28;20904;-78
2022/06/30 13:06:39;;;;;;;8.18;4.47;;;30.00;66.60;;;;;;6905202;28;20482;-79
2022/06/30 13:10:01;;;;;;;6.95;3.08;;;30.20;70.80;;;;;;6908896;28;20448;-77
2022/06/30 13:13:23;;;;;;;7.60;2.95;;;30.40;69.90;;;;;;6905720;28;20941;-79
2022/06/30 13:16:48;;;;;;;5.72;2.80;;;30.50;68.70;;;;;;6908145;28;20436;-76
2022/06/30 13:20:11;;;;;;;7.80;3.00;;;30.60;68.40;;;;;;6907433;28;20440;-78
2022/06/30 13:23:34;;;;;;;6.97;2.92;;;30.70;68.90;;;;;;6905141;28;20456;-78
2022/06/30 13:27:02;;;;;;;5.82;3.08;;;30.80;65.50;;;;;;6903989;28;20439;-78
2022/06/30 13:30:24;;;;;;;6.23;2.90;;;30.90;66.70;;;;;;6907766;28;20447;-78
2022/06/30 13:33:47;;;;;;;5.13;2.80;;;31.10;66.30;;;;;;6904495;28;21052;-77
2022/06/30 13:37:09;;;;;;;8.60;2.85;;;31.10;67.90;;;;;;6907654;28;20431;-79
2022/06/30 13:40:32;;;;;;;5.97;2.92;;;31.30;68.50;;;;;;6914061;28;20437;-77
2022/06/30 13:43:54;;;;;;;7.43;3.25;;;31.50;66.60;;;;;;6906449;28;20441;-77
2022/06/30 13:47:17;;;;;;;5.63;2.97;;;31.70;64.40;;;;;;6906292;28;20479;-77
2022/06/30 13:50:41;;;;;;;5.75;2.97;;;31.80;63.40;;;;;;6912432;28;20447;-79
2022/06/30 13:54:04;;;;;;;5.40;3.00;;;31.60;62.30;;;;;;6904440;28;20573;-79
2022/06/30 13:57:26;;;;;;;5.25;2.80;;;31.40;62.40;;;;;;6902845;28;20946;-76
2022/06/30 14:00:48;;;;;;;5.17;2.70;;;31.30;62.20;;;;;;6912817;28;20440;-77
2022/06/30 14:04:10;;;;;;;5.13;2.70;;;31.50;65.10;;;;;;6907794;28;20484;-77
2022/06/30 14:07:35;;;;;;;5.82;2.90;;;31.30;60.60;;;;;;6901734;28;20432;-79
2022/06/30 14:10:57;;;;;;;5.57;2.93;;;31.30;62.10;;;;;;6909263;28;20468;-77
2022/06/30 14:14:19;;;;;;;6.18;3.00;;;31.30;62.20;;;;;;6910052;28;20429;-77
2022/06/30 14:17:42;;;;;;;6.50;3.10;;;31.10;61.30;;;;;;6913005;28;20452;-77
2022/06/30 14:21:06;;;;;;;5.80;3.00;;;31.00;62.60;;;;;;6904144;28;20918;-77
2022/06/30 14:24:30;;;;;;;5.40;2.90;;;30.90;63.20;;;;;;6906742;28;20527;-79
2022/06/30 14:27:52;;;;;;;6.97;2.70;;;30.90;63.70;;;;;;6902106;28;20461;-78
2022/06/30 14:31:15;;;;;;;7.57;2.95;;;30.70;65.00;;;;;;6903695;28;20440;-78
2022/06/30 14:34:37;;;;;;;6.72;2.92;;;30.50;65.90;;;;;;6907187;28;21099;-79
2022/06/30 14:37:59;;;;;;;6.88;3.20;;;30.50;65.60;;;;;;6911302;28;20441;-79
2022/06/30 14:44:59;;;;;;;6.70;3.22;;;30.30;70.30;;;;;;6909046;28;20631;-78
2022/06/30 14:48:22;;;;;;;7.40;3.30;;;30.20;67.20;;;;;;6908327;28;20549;-79
2022/06/30 14:51:44;;;;;;;5.90;2.85;;;30.10;72.60;;;;;;6909024;28;20475;-79
2022/06/30 14:55:07;;;;;;;5.22;2.90;;;30.10;70.10;;;;;;6908707;28;20442;-79
2022/06/30 14:58:31;;;;;;;5.70;3.37;;;30.10;72.60;;;;;;6907678;28;20952;-80
2022/06/30 15:01:53;;;;;;;6.15;3.25;;;29.90;74.60;;;;;;6907602;28;20496;-77
2022/06/30 15:05:22;;;;;;;6.30;3.20;;;29.90;75.30;;;;;;6907235;28;20440;-81
2022/06/30 15:08:44;;;;;;;5.28;3.40;;;29.80;71.70;;;;;;6909873;28;20814;-78
2022/06/30 15:12:07;;;;;;;7.30;3.40;;;29.50;81.80;;;;;;6910853;28;20520;-80
2022/06/30 15:15:31;;;;;;;6.97;3.20;;;29.50;80.40;;;;;;6908159;28;20478;-79
2022/06/30 15:18:53;;;;;;;7.73;3.10;;;29.20;79.70;;;;;;6907856;28;21223;-78
2022/06/30 15:25:55;;;;;;;10.93;3.00;;;28.30;72.10;;;;;;6909610;28;20898;-80
2022/06/30 15:29:17;;;;;;;8.95;2.78;;;27.50;73.90;;;;;;6906729;28;20440;-80
2022/06/30 15:32:40;;;;;;;10.55;3.33;;;27.00;75.80;;;;;;6903959;28;20444;-80
2022/06/30 15:36:02;;;;;;;10.63;3.72;;;26.60;79.20;;;;;;6907337;28;20475;-77
2022/06/30 15:39:24;;;;;;;8.15;3.67;;;26.40;81.40;;;;;;6899036;28;20474;-80
2022/06/30 15:42:48;;;;;;;9.02;3.60;;;26.40;82.80;;;;;;6899237;28;20839;-78
2022/06/30 15:46:11;;;;;;;7.90;3.50;;;26.40;82.20;;;;;;6907794;28;20472;-80
2022/06/30 15:49:34;;;;;;;8.45;3.13;;;26.10;78.40;;;;;;6908216;28;20444;-79
2022/06/30 15:52:56;;;;;;;7.85;3.28;;;26.00;79.30;;;;;;6905589;28;20475;-79
2022/06/30 15:56:18;;;;;;;7.93;3.33;;;26.00;80.10;;;;;;6904324;28;20527;-78
2022/06/30 15:59:40;;;;;;;7.10;3.30;;;26.10;80.90;;;;;;6907451;28;21097;-77
2022/06/30 16:03:02;;;;;;;7.07;3.42;;;26.20;81.90;;;;;;6903468;28;20633;-77
2022/06/30 16:06:26;;;;;;;8.68;3.65;;;26.30;82.50;;;;;;6900756;28;20481;-78
2022/06/30 16:09:48;;;;;;;8.63;3.33;;;26.30;85.30;;;;;;6908224;28;20907;-78
2022/06/30 16:13:10;;;;;;;6.68;3.40;;;26.30;85.00;;;;;;6901777;28;20440;-77
2022/06/30 16:16:32;;;;;;;6.72;3.33;;;26.30;83.40;;;;;;6905050;28;20941;-77
2022/06/30 16:19:54;;;;;;;6.05;3.70;;;26.30;83.30;;;;;;6906507;28;20918;-80
2022/06/30 16:23:18;;;;;;;8.13;4.00;;;26.30;83.50;;;;;;6904673;28;20475;-79
2022/06/30 16:26:40;;;;;;;8.82;3.50;;;26.30;83.50;;;;;;6895784;28;20470;-78
2022/06/30 16:30:04;;;;;;;7.20;4.03;;;26.20;85.90;;;;;;6906740;28;20441;-79
2022/06/30 16:33:26;;;;;;;6.80;4.20;;;26.10;86.50;;;;;;6903090;28;20475;-80
2022/06/30 16:36:48;;;;;;;6.65;3.42;;;25.90;87.90;;;;;;6906086;28;20860;-78
2022/06/30 16:40:13;;;;;;;5.50;3.15;;;25.80;88.10;;;;;;6898552;28;20783;-80
2022/06/30 16:43:36;;;;;;;4.70;3.20;;;25.90;87.70;;;;;;6899552;28;20452;-79
2022/06/30 16:46:58;;;;;;;6.55;3.10;;;25.90;87.00;;;;;;6907358;28;20445;-78
2022/06/30 16:50:20;;;;;;;5.82;3.10;;;25.90;86.90;;;;;;6906770;28;20484;-79
2022/06/30 16:53:42;;;;;;;7.25;3.10;;;26.00;87.90;;;;;;6904389;28;20792;-79
2022/06/30 16:57:06;;;;;;;7.00;3.20;;;26.10;88.10;;;;;;6908054;28;21387;-78
2022/06/30 17:00:29;;;;;;;13.63;7.47;;;26.20;88.80;;;;;;6907189;28;20436;-78
2022/06/30 17:03:51;;;;;;;7.28;3.30;;;26.30;89.30;;;;;;6903176;28;20525;-76
2022/06/30 17:07:14;;;;;;;7.18;3.47;;;26.40;90.00;;;;;;6906662;28;20440;-79
2022/06/30 17:10:37;;;;;;;7.38;3.10;;;26.60;90.40;;;;;;6904891;28;20479;-78
2022/06/30 17:14:01;;;;;;;8.60;3.00;;;26.90;88.40;;;;;;6904773;28;20447;-78
2022/06/30 17:17:23;;;;;;;6.50;3.05;;;27.30;87.40;;;;;;6899934;28;20568;-78
2022/06/30 17:20:45;;;;;;;5.60;3.00;;;27.70;87.30;;;;;;6906365;28;20938;-78
2022/06/30 17:24:08;;;;;;;7.60;3.10;;;28.10;85.60;;;;;;6910448;28;20488;-78
2022/06/30 17:27:30;;;;;;;9.02;3.03;;;28.40;82.20;;;;;;6911210;28;20478;-80
2022/06/30 17:30:54;;;;;;;6.95;3.03;;;28.50;81.40;;;;;;6912231;28;20918;-79
2022/06/30 17:34:16;;;;;;;7.20;3.40;;;28.50;81.70;;;;;;6912181;28;21149;-78
2022/06/30 17:37:38;;;;;;;7.07;3.50;;;28.40;80.50;;;;;;6911419;28;20479;-79
2022/06/30 17:41:02;;;;;;;7.25;3.10;;;28.20;80.10;;;;;;6918110;28;20500;-80
2022/06/30 17:44:24;;;;;;;7.88;3.40;;;28.00;81.70;;;;;;6911668;28;20447;-79
2022/06/30 17:47:47;;;;;;;5.85;3.38;;;27.70;82.90;;;;;;6911244;28;20460;-78
2022/06/30 17:51:10;;;;;;;7.32;4.00;;;27.70;88.40;;;;;;6908480;28;20468;-80
2022/06/30 17:54:32;;;;;;;6.93;4.80;;;27.20;90.70;;;;;;6907705;28;20443;-80
2022/06/30 17:57:54;;;;;;;7.50;5.00;;;26.50;92.40;;;;;;6910012;28;20468;-79
2022/06/30 18:01:16;;;;;;;7.78;5.57;;;26.30;93.30;;;;;;6909097;28;20479;-78